createdAt,value
2022-10-04T00:00:41.873Z,99974.78
2022-10-04T00:03:24.819Z,99966.00
2022-10-04T00:06:02.139Z,99974.09
2022-10-04T00:08:42.720Z,99975.03
2022-10-04T00:11:20.808Z,99971.59
2022-10-04T00:13:57.706Z,99967.19
2022-10-04T00:16:34.311Z,99959.25
2022-10-04T00:19:42.745Z,99973.31
2022-10-04T00:22:26.197Z,99968.31
2022-10-04T00:25:20.808Z,99963.75
2022-10-04T00:28:18.386Z,99962.00
2022-10-04T00:31:17.542Z,99959.41
2022-10-04T00:33:53.745Z,99952.53
2022-10-04T00:36:48.533Z,99948.78
2022-10-04T00:39:44.173Z,99951.31
2022-10-04T00:42:36.636Z,99948.03
2022-10-04T00:45:20.695Z,99950.13
2022-10-04T00:48:06.991Z,99953.22
2022-10-04T00:50:44.110Z,99943.38
2022-10-04T00:53:38.630Z,99944.34
2022-10-04T00:56:17.705Z,99944.50
2022-10-04T00:59:10.276Z,99940.88
2022-10-04T01:01:46.624Z,99940.25
2022-10-04T01:04:33.103Z,99941.03
2022-10-04T01:07:08.188Z,99950.97
2022-10-04T01:09:49.849Z,99950.97
2022-10-04T01:12:38.375Z,99949.06
2022-10-04T01:15:17.379Z,99953.56
2022-10-04T01:18:11.948Z,99948.81
2022-10-04T01:20:56.709Z,99948.03
2022-10-04T01:23:37.081Z,99948.22
2022-10-04T01:26:41.317Z,99946.22
2022-10-04T01:29:18.406Z,99950.97
2022-10-04T01:31:54.109Z,99956.41
2022-10-04T01:34:29.851Z,99958.31
2022-10-04T01:37:03.991Z,99960.28
2022-10-04T01:39:38.945Z,99960.38
2022-10-04T01:42:17.235Z,99959.50
2022-10-04T01:44:56.682Z,99954.94
2022-10-04T01:47:35.140Z,99957.53
2022-10-04T01:50:15.946Z,99953.88
2022-10-04T01:52:55.802Z,99954.69
2022-10-04T01:55:35.502Z,99958.06
2022-10-04T01:58:13.006Z,99963.22
2022-10-04T02:00:53.454Z,99961.31
2022-10-04T02:03:34.886Z,99962.25
2022-10-04T02:06:11.651Z,99957.00
2022-10-04T02:08:50.805Z,99971.25
2022-10-04T02:11:30.294Z,99958.72
2022-10-04T02:14:03.899Z,99962.19
2022-10-04T02:16:40.394Z,99960.31
2022-10-04T02:19:15.741Z,99966.25
2022-10-04T02:21:51.100Z,99957.25
2022-10-04T02:24:24.922Z,99974.09
2022-10-04T02:26:59.626Z,99967.94
2022-10-04T02:29:33.386Z,99964.00
2022-10-04T02:32:24.524Z,99963.47
2022-10-04T02:34:59.094Z,99968.59
2022-10-04T02:37:32.692Z,99967.69
2022-10-04T02:40:12.304Z,99969.34
2022-10-04T02:42:53.710Z,99965.66
2022-10-04T02:45:34.299Z,99962.88
2022-10-04T02:48:21.422Z,99967.19
2022-10-04T02:50:58.943Z,99974.19
2022-10-04T02:53:38.520Z,99972.19
2022-10-04T02:56:12.920Z,99973.94
2022-10-04T02:58:48.433Z,99966.75
2022-10-04T03:01:27.938Z,99964.94
2022-10-04T03:04:02.678Z,99966.94
2022-10-04T03:06:36.267Z,99961.84
2022-10-04T03:09:10.260Z,99977.22
2022-10-04T03:11:44.560Z,99976.53
2022-10-04T03:14:21.695Z,99979.13
2022-10-04T03:17:00.803Z,99981.72
2022-10-04T03:19:36.122Z,99978.75
2022-10-04T03:22:11.577Z,99983.16
2022-10-04T03:24:48.106Z,99983.91
2022-10-04T03:27:25.144Z,99974.19
2022-10-04T03:30:03.250Z,99976.88
2022-10-04T03:32:40.007Z,99979.63
2022-10-04T03:35:24.249Z,99976.28
2022-10-04T03:37:59.845Z,99975.56
2022-10-04T03:40:35.052Z,99983.75
2022-10-04T03:43:12.591Z,99983.84
2022-10-04T03:45:47.780Z,99985.75
2022-10-04T03:48:30.387Z,99984.91
2022-10-04T03:51:06.542Z,99991.19
2022-10-04T03:53:43.591Z,99984.09
2022-10-04T03:56:20.659Z,99991.25
2022-10-04T03:58:55.213Z,99986.69
2022-10-04T04:01:38.803Z,99990.31
2022-10-04T04:04:23.176Z,99992.91
2022-10-04T04:07:03.273Z,99989.34
2022-10-04T04:09:43.723Z,99996.53
2022-10-04T04:12:21.403Z,99993.09
2022-10-04T04:14:55.866Z,99995.00
2022-10-04T04:17:39.379Z,99993.25
2022-10-04T04:20:26.319Z,100000.34
2022-10-04T04:23:07.159Z,100001.97
2022-10-04T04:25:43.306Z,100004.56
2022-10-04T04:28:27.552Z,100009.81
2022-10-04T04:31:05.785Z,100012.59
2022-10-04T04:33:46.450Z,100023.19
2022-10-04T04:36:20.009Z,100021.38
2022-10-04T04:39:10.957Z,100025.69
2022-10-04T04:41:50.173Z,100036.41
2022-10-04T04:44:24.773Z,100034.66
2022-10-04T04:47:00.735Z,100033.81
2022-10-04T04:49:41.405Z,100035.63
2022-10-04T04:52:18.425Z,100036.41
2022-10-04T04:54:53.249Z,100039.94
2022-10-04T04:57:27.090Z,100040.81
2022-10-04T05:00:02.247Z,100040.19
2022-10-04T05:02:38.351Z,100041.66
2022-10-04T05:05:24.959Z,100039.84
2022-10-04T05:08:13.195Z,100052.47
2022-10-04T05:10:51.329Z,100054.38
2022-10-04T05:13:32.764Z,100056.97
2022-10-04T05:16:11.489Z,100056.06
2022-10-04T05:18:46.587Z,100064.91
2022-10-04T05:21:25.349Z,100065.75
2022-10-04T05:24:08.045Z,100056.88
2022-10-04T05:26:43.935Z,100055.91
2022-10-04T05:29:24.344Z,100062.06
2022-10-04T05:32:06.768Z,100063.59
2022-10-04T05:34:42.488Z,100066.19
2022-10-04T05:37:47.739Z,100071.97
2022-10-04T05:40:33.619Z,100071.22
2022-10-04T05:43:23.511Z,100079.84
2022-10-04T05:46:19.634Z,100084.97
2022-10-04T05:48:58.347Z,100085.94
2022-10-04T05:51:38.367Z,100088.41
2022-10-04T05:54:13.990Z,100097.16
2022-10-04T05:57:02.348Z,100103.13
2022-10-04T05:59:49.816Z,100100.34
2022-10-04T06:02:38.158Z,100107.25
2022-10-04T06:05:15.934Z,100102.78
2022-10-04T06:07:55.395Z,100114.25
2022-10-04T06:10:57.608Z,100113.06
2022-10-04T06:14:04.411Z,100113.91
2022-10-04T06:16:55.975Z,100115.81
2022-10-04T06:19:59.697Z,100126.28
2022-10-04T06:22:33.381Z,100123.78
2022-10-04T06:25:11.888Z,100131.81
2022-10-04T06:27:55.517Z,100143.13
2022-10-04T06:30:37.137Z,100129.66
2022-10-04T06:33:34.040Z,100141.81
2022-10-04T06:36:37.288Z,100148.81
2022-10-04T06:39:34.843Z,100152.09
2022-10-04T06:42:25.507Z,100157.53
2022-10-04T06:45:24.107Z,100173.44
2022-10-04T06:48:13.290Z,100178.63
2022-10-04T06:50:51.744Z,100184.91
2022-10-04T06:53:33.005Z,100180.53
2022-10-04T06:56:27.433Z,100183.13
2022-10-04T06:59:37.878Z,100176.47
2022-10-04T07:02:18.713Z,100184.59
2022-10-04T07:05:08.046Z,100184.41
2022-10-04T07:07:47.697Z,100192.78
2022-10-04T07:10:32.346Z,100197.63
2022-10-04T07:13:17.652Z,100204.22
2022-10-04T07:15:55.792Z,100202.53
2022-10-04T07:18:36.776Z,100207.78
2022-10-04T07:21:15.769Z,100201.00
2022-10-04T07:23:54.580Z,100202.22
2022-10-04T07:26:34.621Z,100204.28
2022-10-04T07:29:21.763Z,100199.72
2022-10-04T07:32:08.778Z,100200.13
2022-10-04T07:34:51.613Z,100202.13
2022-10-04T07:37:29.273Z,100204.94
2022-10-04T07:40:09.361Z,100216.16
2022-10-04T07:42:50.546Z,100211.28
2022-10-04T07:45:29.990Z,100213.75
2022-10-04T07:48:06.864Z,100213.00
2022-10-04T07:50:47.907Z,100209.53
2022-10-04T07:53:27.889Z,100215.59
2022-10-04T07:56:06.469Z,100215.69
2022-10-04T07:58:52.944Z,100224.19
2022-10-04T08:01:35.185Z,100231.31
2022-10-04T08:04:30.533Z,100230.25
2022-10-04T08:07:20.347Z,100232.50
2022-10-04T08:10:04.168Z,100249.47
2022-10-04T08:12:48.598Z,100251.00
2022-10-04T08:15:40.064Z,100250.38
2022-10-04T08:18:37.262Z,100255.50
2022-10-04T08:21:20.714Z,100255.91
2022-10-04T08:24:17.891Z,100258.41
2022-10-04T08:27:02.256Z,100251.28
2022-10-04T08:29:55.274Z,100252.38
2022-10-04T08:32:40.733Z,100259.50
2022-10-04T08:35:31.293Z,100264.41
2022-10-04T08:38:35.886Z,100261.28
2022-10-04T08:41:26.895Z,100263.00
2022-10-04T08:44:43.650Z,100259.94
2022-10-04T08:47:50.560Z,100274.91
2022-10-04T08:50:54.690Z,100276.75
2022-10-04T08:53:54.668Z,100282.03
2022-10-04T08:56:43.864Z,100279.97
2022-10-04T08:59:54.911Z,100284.03
2022-10-04T09:02:50.527Z,100280.38
2022-10-04T09:05:47.960Z,100287.47
2022-10-04T09:09:04.924Z,100290.28
2022-10-04T09:12:13.648Z,100295.13
2022-10-04T09:15:27.680Z,100301.06
2022-10-04T09:18:24.144Z,100288.25
2022-10-04T09:21:02.740Z,100291.09
2022-10-04T09:24:26.920Z,100292.03
2022-10-04T09:27:13.123Z,100291.53
2022-10-04T09:30:06.605Z,100298.59
2022-10-04T09:33:05.505Z,100306.84
2022-10-04T09:36:17.749Z,100311.47
2022-10-04T09:39:36.350Z,100313.53
2022-10-04T09:42:58.727Z,100309.31
2022-10-04T09:46:08.407Z,100309.19
2022-10-04T09:48:45.713Z,100319.53
2022-10-04T09:52:05.144Z,100326.28
2022-10-04T09:55:10.817Z,100327.06
2022-10-04T09:58:09.363Z,100319.97
2022-10-04T10:00:47.929Z,100334.50
2022-10-04T10:03:59.111Z,100332.72
2022-10-04T10:06:51.889Z,100331.06
2022-10-04T10:09:44.737Z,100344.94
2022-10-04T10:13:10.796Z,100344.56
2022-10-04T10:15:59.750Z,100353.19
2022-10-04T10:18:47.867Z,100351.31
2022-10-04T10:21:43.614Z,100358.06
2022-10-04T10:24:58.222Z,100358.28
2022-10-04T10:27:46.712Z,100360.34
2022-10-04T10:30:31.320Z,100373.56
2022-10-04T10:33:43.778Z,100376.81
2022-10-04T10:36:35.803Z,100377.00
2022-10-04T10:39:44.247Z,100381.84
2022-10-04T10:42:38.086Z,100382.44
2022-10-04T10:45:30.574Z,100381.63
2022-10-04T10:48:09.438Z,100390.66
2022-10-04T10:51:00.520Z,100377.22
2022-10-04T10:54:14.034Z,100380.16
2022-10-04T10:56:56.873Z,100380.22
2022-10-04T10:59:59.748Z,100381.50
2022-10-04T11:03:14.295Z,100376.19
2022-10-04T11:06:26.223Z,100376.38
2022-10-04T11:09:41.434Z,100375.94
2022-10-04T11:12:45.116Z,100384.00
2022-10-04T11:16:03.635Z,100392.25
2022-10-04T11:19:29.277Z,100399.44
2022-10-04T11:22:44.922Z,100397.56
2022-10-04T11:25:53.014Z,100403.97
2022-10-04T11:28:40.862Z,100411.03
2022-10-04T11:31:55.855Z,100411.88
2022-10-04T11:34:49.018Z,100414.56
2022-10-04T11:37:44.619Z,100413.72
2022-10-04T11:40:36.791Z,100417.53
2022-10-04T11:43:32.619Z,100419.81
2022-10-04T11:46:27.289Z,100425.06
2022-10-04T11:49:20.002Z,100420.94
2022-10-04T11:52:44.517Z,100417.50
2022-10-04T11:56:04.321Z,100416.88
2022-10-04T11:58:54.300Z,100426.41
2022-10-04T12:02:19.701Z,100422.41
2022-10-04T12:05:14.562Z,100430.59
2022-10-04T12:07:51.561Z,100436.09
2022-10-04T12:10:31.167Z,100424.63
2022-10-04T12:13:35.877Z,100431.94
2022-10-04T12:16:44.244Z,100431.00
2022-10-04T12:19:52.508Z,100430.25
2022-10-04T12:22:53.199Z,100434.75
2022-10-04T12:25:55.307Z,100432.75
2022-10-04T12:28:56.708Z,100437.19
2022-10-04T12:31:36.630Z,100447.88
2022-10-04T12:34:21.571Z,100446.66
2022-10-04T12:37:21.768Z,100451.72
2022-10-04T12:40:15.124Z,100452.69
2022-10-04T12:43:23.401Z,100455.16
2022-10-04T12:46:10.345Z,100456.00
2022-10-04T12:49:09.328Z,100449.66
2022-10-04T12:51:57.190Z,100451.72
2022-10-04T12:54:43.907Z,100451.75
2022-10-04T12:57:43.243Z,100459.41
2022-10-04T13:00:22.948Z,100454.59
2022-10-04T13:03:26.739Z,100453.38
2022-10-04T13:06:11.787Z,100465.19
2022-10-04T13:08:59.391Z,100471.22
2022-10-04T13:12:00.810Z,100462.72
2022-10-04T13:15:00.338Z,100469.25
2022-10-04T13:17:45.142Z,100468.16
2022-10-04T13:20:40.415Z,100471.38
2022-10-04T13:23:28.123Z,100467.16
2022-10-04T13:26:32.387Z,100474.69
2022-10-04T13:29:15.892Z,100479.38
2022-10-04T13:31:54.438Z,100475.13
2022-10-04T13:34:37.956Z,100490.44
2022-10-04T13:37:27.301Z,100481.13
2022-10-04T13:40:32.806Z,100484.31
2022-10-04T13:43:29.153Z,100488.19
2022-10-04T13:46:14.065Z,100492.53
2022-10-04T13:48:57.391Z,100491.34
2022-10-04T13:52:10.185Z,100496.81
2022-10-04T13:55:09.974Z,100505.41
2022-10-04T13:57:51.897Z,100500.56
2022-10-04T14:00:49.321Z,100509.16
2022-10-04T14:03:40.376Z,100512.56
2022-10-04T14:06:44.337Z,100520.91
2022-10-04T14:09:28.918Z,100517.66
2022-10-04T14:12:37.559Z,100522.16
2022-10-04T14:15:51.258Z,100511.28
2022-10-04T14:18:59.836Z,100522.81
2022-10-04T14:22:23.278Z,100517.94
2022-10-04T14:25:27.479Z,100516.00
2022-10-04T14:28:49.416Z,100511.75
2022-10-04T14:31:42.443Z,100512.47
2022-10-04T14:34:55.428Z,100521.31
2022-10-04T14:38:08.344Z,100527.34
2022-10-04T14:40:54.660Z,100534.09
2022-10-04T14:44:10.669Z,100534.84
2022-10-04T14:47:00.188Z,100536.09
2022-10-04T14:50:00.175Z,100530.91
2022-10-04T14:52:52.690Z,100533.88
2022-10-04T14:55:54.113Z,100534.19
2022-10-04T14:58:41.447Z,100534.56
2022-10-04T15:01:23.625Z,100532.13
2022-10-04T15:04:31.822Z,100533.94
2022-10-04T15:07:22.127Z,100540.66
2022-10-04T15:10:12.915Z,100544.47
2022-10-04T15:13:12.479Z,100542.88
2022-10-04T15:16:13.659Z,100541.22
2022-10-04T15:19:00.380Z,100546.94
2022-10-04T15:22:18.202Z,100548.09
2022-10-04T15:24:53.587Z,100541.66
2022-10-04T15:27:56.916Z,100541.09
2022-10-04T15:30:50.969Z,100543.72
2022-10-04T15:33:34.750Z,100547.00
2022-10-04T15:36:59.967Z,100547.38
2022-10-04T15:39:58.933Z,100555.41
2022-10-04T15:42:38.833Z,100547.66
2022-10-04T15:45:52.376Z,100557.09
2022-10-04T15:48:36.891Z,100563.84
2022-10-04T15:51:19.414Z,100557.06
2022-10-04T15:54:13.760Z,100566.19
2022-10-04T15:56:57.303Z,100563.09
2022-10-04T15:59:47.579Z,100565.19
2022-10-04T16:03:00.524Z,100571.53
2022-10-04T16:05:40.312Z,100576.56
2022-10-04T16:08:42.007Z,100581.28
2022-10-04T16:11:40.207Z,100577.22
2022-10-04T16:14:45.242Z,100579.25
2022-10-04T16:17:50.477Z,100586.69
2022-10-04T16:21:06.246Z,100584.47
2022-10-04T16:23:45.595Z,100593.03
2022-10-04T16:27:05.034Z,100592.28
2022-10-04T16:30:14.508Z,100599.00
2022-10-04T16:33:08.191Z,100601.84
2022-10-04T16:35:43.144Z,100608.72
2022-10-04T16:38:24.951Z,100604.97
2022-10-04T16:41:13.694Z,100602.59
2022-10-04T16:43:55.324Z,100610.00
2022-10-04T16:46:41.040Z,100614.66
2022-10-04T16:49:25.561Z,100618.34
2022-10-04T16:52:21.779Z,100610.47
2022-10-04T16:55:17.913Z,100607.88
2022-10-04T16:58:28.616Z,100609.69
2022-10-04T17:01:35.660Z,100609.91
2022-10-04T17:04:29.723Z,100617.25
2022-10-04T17:07:21.445Z,100621.97
2022-10-04T17:10:04.060Z,100628.31
2022-10-04T17:12:47.805Z,100631.16
2022-10-04T17:15:39.237Z,100623.25
2022-10-04T17:18:30.437Z,100631.22
2022-10-04T17:21:14.257Z,100628.75
2022-10-04T17:24:11.329Z,100627.91
2022-10-04T17:27:05.243Z,100627.19
2022-10-04T17:29:53.883Z,100629.88
2022-10-04T17:32:44.584Z,100625.59
2022-10-04T17:35:40.090Z,100624.81
2022-10-04T17:38:22.293Z,100628.41
2022-10-04T17:41:05.107Z,100623.06
2022-10-04T17:43:48.211Z,100625.72
2022-10-04T17:46:25.428Z,100625.81
2022-10-04T17:49:20.980Z,100622.28
2022-10-04T17:52:14.915Z,100629.50
2022-10-04T17:55:11.191Z,100636.72
2022-10-04T17:57:50.605Z,100639.56
2022-10-04T18:00:25.579Z,100635.22
2022-10-04T18:03:20.206Z,100639.56
2022-10-04T18:06:02.283Z,100643.41
2022-10-04T18:08:46.767Z,100654.19
2022-10-04T18:11:32.097Z,100648.03
2022-10-04T18:14:11.991Z,100653.56
2022-10-04T18:16:51.465Z,100660.72
2022-10-04T18:19:42.027Z,100661.66
2022-10-04T18:22:17.628Z,100659.19
2022-10-04T18:25:13.526Z,100663.59
2022-10-04T18:28:02.456Z,100670.03
2022-10-04T18:30:59.086Z,100676.31
2022-10-04T18:33:49.430Z,100671.84
2022-10-04T18:36:29.585Z,100681.88
2022-10-04T18:39:20.678Z,100681.09
2022-10-04T18:42:08.857Z,100684.63
2022-10-04T18:44:59.591Z,100691.00
2022-10-04T18:47:38.577Z,100697.34
2022-10-04T18:50:25.392Z,100700.97
2022-10-04T18:53:16.758Z,100697.50
2022-10-04T18:55:59.643Z,100702.13
2022-10-04T18:59:16.682Z,100704.00
2022-10-04T19:02:10.933Z,100704.84
2022-10-04T19:04:48.799Z,100698.84
2022-10-04T19:07:37.653Z,100703.38
2022-10-04T19:10:22.516Z,100705.19
2022-10-04T19:13:21.857Z,100705.13
2022-10-04T19:16:24.285Z,100707.88
2022-10-04T19:19:21.583Z,100715.97
2022-10-04T19:22:02.375Z,100712.56
2022-10-04T19:25:03.976Z,100719.78
2022-10-04T19:27:45.382Z,100717.19
2022-10-04T19:30:22.149Z,100718.09
2022-10-04T19:33:05.177Z,100719.03
2022-10-04T19:36:07.662Z,100721.56
2022-10-04T19:38:56.773Z,100718.22
2022-10-04T19:41:58.423Z,100723.59
2022-10-04T19:44:45.670Z,100733.47
2022-10-04T19:47:40.025Z,100729.97
2022-10-04T19:50:19.214Z,100731.28
2022-10-04T19:52:58.397Z,100730.03
2022-10-04T19:55:45.216Z,100731.88
2022-10-04T19:58:27.848Z,100727.59
2022-10-04T20:01:01.459Z,100734.78
2022-10-04T20:03:36.868Z,100738.44
2022-10-04T20:06:11.842Z,100744.75
2022-10-04T20:09:02.545Z,100755.41
2022-10-04T20:11:49.862Z,100747.44
2022-10-04T20:14:53.678Z,100747.44
2022-10-04T20:17:35.213Z,100757.47
2022-10-04T20:20:09.093Z,100763.84
2022-10-04T20:22:57.584Z,100760.25
2022-10-04T20:26:04.086Z,100763.78
2022-10-04T20:28:43.121Z,100766.78
2022-10-04T20:31:54.681Z,100771.13
2022-10-04T20:34:48.536Z,100770.47
2022-10-04T20:37:22.488Z,100772.31
2022-10-04T20:39:58.850Z,100779.47
2022-10-04T20:42:38.940Z,100781.28
2022-10-04T20:45:28.160Z,100778.53
2022-10-04T20:48:01.726Z,100776.00
2022-10-04T20:50:43.365Z,100780.47
2022-10-04T20:53:21.103Z,100780.59
2022-10-04T20:56:13.404Z,100780.53
2022-10-04T20:58:54.026Z,100788.69
2022-10-04T21:01:42.681Z,100792.28
2022-10-04T21:04:30.154Z,100794.16
2022-10-04T21:07:06.804Z,100801.34
2022-10-04T21:09:42.188Z,100796.94
2022-10-04T21:12:42.316Z,100791.41
2022-10-04T21:15:24.334Z,100798.66
2022-10-04T21:18:03.709Z,100789.00
2022-10-04T21:20:47.922Z,100785.50
2022-10-04T21:23:30.361Z,100780.22
2022-10-04T21:26:23.895Z,100776.47
2022-10-04T21:28:59.764Z,100776.66
2022-10-04T21:31:34.744Z,100775.88
2022-10-04T21:34:10.490Z,100778.53
2022-10-04T21:36:44.116Z,100781.16
2022-10-04T21:39:17.821Z,100781.09
2022-10-04T21:41:53.450Z,100777.28
2022-10-04T21:44:26.968Z,100766.47
2022-10-04T21:47:01.810Z,100770.84
2022-10-04T21:49:35.245Z,100775.25
2022-10-04T21:52:09.036Z,100770.78
2022-10-04T21:54:42.192Z,100776.59
2022-10-04T21:57:18.681Z,100780.53
2022-10-04T21:59:55.178Z,100783.28
2022-10-04T22:02:30.081Z,100778.06
2022-10-04T22:05:03.613Z,100785.19
2022-10-04T22:07:37.076Z,100781.66
2022-10-04T22:10:11.328Z,100788.75
2022-10-04T22:12:49.241Z,100791.41
2022-10-04T22:15:24.196Z,100785.94
2022-10-04T22:18:02.126Z,100785.88
2022-10-04T22:20:35.868Z,100792.09
2022-10-04T22:23:12.597Z,100789.78
2022-10-04T22:25:51.373Z,100801.72
2022-10-04T22:28:26.615Z,100801.72
2022-10-04T22:31:00.176Z,100810.56
2022-10-04T22:33:39.823Z,100813.19
2022-10-04T22:36:20.755Z,100812.22
2022-10-04T22:39:04.232Z,100815.59
2022-10-04T22:41:40.243Z,100831.59
2022-10-04T22:44:17.546Z,100832.38
2022-10-04T22:46:56.489Z,100833.19
2022-10-04T22:49:34.090Z,100832.06
2022-10-04T22:52:14.342Z,100823.94
2022-10-04T22:54:50.156Z,100827.34
2022-10-04T22:57:29.752Z,100837.03
2022-10-04T23:00:03.739Z,100834.28
2022-10-04T23:02:40.371Z,100827.09
2022-10-04T23:05:20.566Z,100827.88
2022-10-04T23:07:54.330Z,100823.34
2022-10-04T23:10:27.501Z,100821.91
2022-10-04T23:13:01.046Z,100821.44
2022-10-04T23:15:36.260Z,100820.47
2022-10-04T23:18:19.506Z,100815.06
2022-10-04T23:20:58.108Z,100814.13
2022-10-04T23:23:32.765Z,100806.06
2022-10-04T23:26:17.121Z,100797.97
2022-10-04T23:28:53.569Z,100804.22
2022-10-04T23:31:28.586Z,100809.66
2022-10-04T23:34:05.134Z,100805.31
2022-10-04T23:36:42.782Z,100798.34
2022-10-04T23:39:35.721Z,100801.09
2022-10-04T23:42:25.416Z,100798.72
2022-10-04T23:45:00.578Z,100798.31
2022-10-04T23:47:44.522Z,100795.00
2022-10-04T23:50:20.865Z,100798.31
2022-10-04T23:53:02.437Z,100794.53
2022-10-04T23:55:38.591Z,100797.44
2022-10-04T23:58:18.348Z,100800.34
